Time;durP1;ratioP1;P1;durP2;ratioP2;P2;SDS_P1;SDS_P2;PMS_P1;PMS_P2;Temp;Humidity;BMP_temperature;BMP_pressure;BME280_temperature;BME280_humidity;BME280_pressure;Samples;Min_cycle;Max_cycle;Signal;HPM_P1;HPM_P2
2023/04/03 00:01:01;;;;;;;5.30;2.70;;;;;;;;;;5012018;28;20448;-89
2023/04/03 00:03:27;;;;;;;3.00;2.40;;;;;;;;;;5034995;28;20423;-88
2023/04/03 00:05:53;;;;;;;6.30;2.60;;;;;;;;;;5033499;28;20423;-89
2023/04/03 00:08:19;;;;;;;2.67;2.47;;;;;;;;;;5016215;28;20816;-90
2023/04/03 00:10:45;;;;;;;3.80;3.33;;;;;;;;;;4998017;28;20447;-88
2023/04/03 00:13:11;;;;;;;3.63;3.30;;;;;;;;;;5008119;28;20546;-89
2023/04/03 00:15:37;;;;;;;4.60;2.87;;;;;;;;;;5029732;28;20945;-88
2023/04/03 00:18:03;;;;;;;3.50;3.07;;;;;;;;;;5006983;28;20508;-89
2023/04/03 00:20:29;;;;;;;8.00;3.00;;;;;;;;;;5011974;28;20451;-88
2023/04/03 00:22:55;;;;;;;2.70;2.50;;;;;;;;;;5011751;28;20428;-87
2023/04/03 00:25:21;;;;;;;6.80;2.90;;;;;;;;;;5014606;28;20423;-88
2023/04/03 00:27:47;;;;;;;2.70;2.50;;;;;;;;;;5019887;28;20430;-89
2023/04/03 00:30:14;;;;;;;6.43;3.73;;;;;;;;;;5015057;28;20487;-90
2023/04/03 00:32:40;;;;;;;7.70;3.10;;;;;;;;;;5005220;28;20475;-89
2023/04/03 00:35:06;;;;;;;4.33;2.90;;;;;;;;;;5007723;28;20799;-88
2023/04/03 00:37:32;;;;;;;3.83;3.50;;;;;;;;;;5009596;28;20790;-89
2023/04/03 00:39:58;;;;;;;3.43;3.13;;;;;;;;;;5030403;28;20446;-88
2023/04/03 00:42:25;;;;;;;3.37;2.70;;;;;;;;;;5034031;28;20504;-88
2023/04/03 00:44:57;;;;;;;3.43;3.10;;;;;;;;;;5013006;28;20420;-88
2023/04/03 00:47:23;;;;;;;6.17;3.33;;;;;;;;;;5026064;28;20943;-89
2023/04/03 00:49:49;;;;;;;3.00;2.60;;;;;;;;;;5009727;28;20439;-88
2023/04/03 00:52:16;;;;;;;3.70;2.27;;;;;;;;;;5009083;28;20526;-87
2023/04/03 00:54:42;;;;;;;4.20;2.20;;;;;;;;;;4996460;28;20435;-88
2023/04/03 00:57:09;;;;;;;4.97;3.67;;;;;;;;;;5004339;28;20443;-88
2023/04/03 00:59:35;;;;;;;5.00;3.40;;;;;;;;;;5020536;28;20426;-87
2023/04/03 01:02:01;;;;;;;2.87;2.67;;;;;;;;;;5020361;28;20916;-87
2023/04/03 01:04:47;;;;;;;3.00;2.50;;;;;;;;;;5016726;28;20951;-88
2023/04/03 01:07:16;;;;;;;4.00;2.60;;;;;;;;;;5025763;28;20430;-87
2023/04/03 01:09:42;;;;;;;3.60;2.60;;;;;;;;;;5029967;28;20512;-88
2023/04/03 01:12:18;;;;;;;4.67;3.07;;;;;;;;;;5020423;28;20923;-89
2023/04/03 01:14:46;;;;;;;4.30;2.30;;;;;;;;;;5022976;28;20414;-88
2023/04/03 01:17:30;;;;;;;3.00;2.43;;;;;;;;;;5002246;28;20462;-88
2023/04/03 01:20:08;;;;;;;4.50;2.50;;;;;;;;;;5035726;28;20803;-87
2023/04/03 01:22:35;;;;;;;4.10;3.10;;;;;;;;;;5027192;28;20426;-87
2023/04/03 01:25:02;;;;;;;3.57;3.00;;;;;;;;;;5000533;28;20497;-87
2023/04/03 01:27:28;;;;;;;5.70;2.63;;;;;;;;;;5006188;28;20859;-88
2023/04/03 01:29:54;;;;;;;4.60;3.03;;;;;;;;;;5016331;28;20481;-88
2023/04/03 01:32:22;;;;;;;4.23;2.80;;;;;;;;;;5008088;28;20426;-88
2023/04/03 01:34:48;;;;;;;2.50;2.23;;;;;;;;;;5009650;28;20479;-87
2023/04/03 01:37:14;;;;;;;3.63;2.77;;;;;;;;;;5026932;28;20422;-88
2023/04/03 01:39:41;;;;;;;3.73;2.37;;;;;;;;;;5039319;28;20445;-87
2023/04/03 01:42:07;;;;;;;3.63;2.70;;;;;;;;;;5024753;28;20426;-88
2023/04/03 01:44:33;;;;;;;3.57;3.13;;;;;;;;;;5018684;28;20435;-88
2023/04/03 01:46:59;;;;;;;4.17;3.43;;;;;;;;;;5021762;28;20828;-88
2023/04/03 01:49:25;;;;;;;4.50;3.20;;;;;;;;;;5025629;28;20450;-87
2023/04/03 01:51:51;;;;;;;3.60;3.10;;;;;;;;;;5022091;28;20783;-87
2023/04/03 01:54:17;;;;;;;2.90;2.60;;;;;;;;;;5017914;28;20426;-87
2023/04/03 01:56:43;;;;;;;2.70;2.40;;;;;;;;;;5023664;28;20439;-87
2023/04/03 01:59:09;;;;;;;3.50;2.80;;;;;;;;;;5021603;28;20941;-87
2023/04/03 02:01:36;;;;;;;5.23;2.90;;;;;;;;;;5023054;28;20421;-87
2023/04/03 02:04:27;;;;;;;7.73;2.83;;;;;;;;;;5026936;28;20435;-89
2023/04/03 02:06:53;;;;;;;4.90;2.93;;;;;;;;;;5008890;28;20436;-88
2023/04/03 02:09:19;;;;;;;5.17;2.77;;;;;;;;;;4998024;28;20479;-88
2023/04/03 02:11:45;;;;;;;5.40;2.77;;;;;;;;;;5007648;28;21122;-88
2023/04/03 02:14:11;;;;;;;4.00;3.53;;;;;;;;;;4996293;28;20439;-88
2023/04/03 02:16:37;;;;;;;5.87;3.30;;;;;;;;;;5015513;28;20415;-89
2023/04/03 02:19:03;;;;;;;5.33;3.27;;;;;;;;;;5006792;28;20460;-88
2023/04/03 02:21:29;;;;;;;3.13;2.57;;;;;;;;;;5005634;28;20499;-89
2023/04/03 02:23:56;;;;;;;3.73;3.03;;;;;;;;;;5003465;28;20443;-86
2023/04/03 02:26:22;;;;;;;4.30;3.20;;;;;;;;;;5019140;28;20451;-88
2023/04/03 02:28:48;;;;;;;5.60;3.00;;;;;;;;;;5011238;28;20525;-87
2023/04/03 02:31:14;;;;;;;3.13;2.70;;;;;;;;;;4988111;28;20439;-88
2023/04/03 02:33:40;;;;;;;3.93;2.90;;;;;;;;;;5013977;28;20424;-88
2023/04/03 02:36:06;;;;;;;3.43;3.13;;;;;;;;;;5001501;28;20791;-88
2023/04/03 02:38:32;;;;;;;3.30;2.80;;;;;;;;;;5032000;28;20436;-88
2023/04/03 02:41:02;;;;;;;3.40;2.93;;;;;;;;;;5029441;28;21201;-88
2023/04/03 02:43:28;;;;;;;4.93;3.00;;;;;;;;;;5041947;28;20461;-88
2023/04/03 02:45:54;;;;;;;4.20;2.70;;;;;;;;;;5007506;28;20438;-87
2023/04/03 02:48:20;;;;;;;6.43;3.03;;;;;;;;;;5019095;28;20451;-89
2023/04/03 02:50:46;;;;;;;2.87;2.63;;;;;;;;;;5021416;28;20410;-88
2023/04/03 02:53:12;;;;;;;3.43;2.67;;;;;;;;;;5016078;28;20438;-89
2023/04/03 02:55:38;;;;;;;3.63;3.10;;;;;;;;;;5018697;28;20411;-89
2023/04/03 02:58:04;;;;;;;4.20;3.50;;;;;;;;;;5018833;28;20538;-89
2023/04/03 03:00:30;;;;;;;4.10;2.70;;;;;;;;;;5021842;28;20418;-89
2023/04/03 03:02:56;;;;;;;3.13;2.83;;;;;;;;;;5031181;28;20465;-86
2023/04/03 03:05:22;;;;;;;4.57;3.17;;;;;;;;;;5021082;28;20439;-87
2023/04/03 03:07:48;;;;;;;3.27;2.80;;;;;;;;;;5024639;28;20522;-86
2023/04/03 03:10:14;;;;;;;3.90;3.43;;;;;;;;;;5022216;28;20467;-88
2023/04/03 03:12:40;;;;;;;3.80;3.40;;;;;;;;;;5052640;28;20484;-86
2023/04/03 03:15:07;;;;;;;3.57;2.43;;;;;;;;;;5041920;28;20488;-88
2023/04/03 03:17:33;;;;;;;2.83;2.63;;;;;;;;;;5010908;28;20426;-87
2023/04/03 03:19:59;;;;;;;2.90;2.60;;;;;;;;;;5014634;28;20448;-87
2023/04/03 03:22:26;;;;;;;2.87;2.60;;;;;;;;;;5020907;28;20422;-87
2023/04/03 03:24:52;;;;;;;3.20;2.90;;;;;;;;;;5052497;28;20430;-87
2023/04/03 03:27:17;;;;;;;3.07;2.50;;;;;;;;;;5035774;28;20418;-87
2023/04/03 03:29:44;;;;;;;8.47;3.43;;;;;;;;;;5041863;28;20460;-87
2023/04/03 03:32:10;;;;;;;3.40;3.07;;;;;;;;;;5049750;28;20513;-87
2023/04/03 03:34:36;;;;;;;3.53;2.87;;;;;;;;;;5036744;28;20443;-88
2023/04/03 03:37:02;;;;;;;7.67;2.50;;;;;;;;;;5016613;28;20414;-88
2023/04/03 03:39:28;;;;;;;4.00;2.83;;;;;;;;;;5055489;28;20487;-87
2023/04/03 03:41:54;;;;;;;2.90;2.60;;;;;;;;;;5051413;28;20450;-88
2023/04/03 03:44:20;;;;;;;3.87;2.90;;;;;;;;;;5022866;28;20419;-86
2023/04/03 03:46:46;;;;;;;3.23;2.93;;;;;;;;;;5006796;28;20410;-87
2023/04/03 03:49:12;;;;;;;8.13;3.17;;;;;;;;;;5046876;28;20454;-88
2023/04/03 03:51:39;;;;;;;5.10;2.40;;;;;;;;;;5010065;28;20461;-87
2023/04/03 03:54:05;;;;;;;2.10;2.00;;;;;;;;;;5038811;28;20781;-88
2023/04/03 03:56:31;;;;;;;2.53;2.20;;;;;;;;;;5046407;28;20925;-88
2023/04/03 03:58:57;;;;;;;3.37;2.70;;;;;;;;;;5048308;28;20488;-88
2023/04/03 04:01:23;;;;;;;2.63;2.37;;;;;;;;;;5025009;28;20415;-86
2023/04/03 04:03:49;;;;;;;3.13;2.77;;;;;;;;;;5045513;28;20423;-89
2023/04/03 04:06:16;;;;;;;4.97;2.67;;;;;;;;;;5030215;28;20450;-89
2023/04/03 04:08:42;;;;;;;6.80;3.03;;;;;;;;;;5050188;28;20450;-89
2023/04/03 04:11:08;;;;;;;2.60;2.37;;;;;;;;;;5034817;28;20979;-89
2023/04/03 04:13:34;;;;;;;5.20;2.87;;;;;;;;;;5023449;28;20422;-88
2023/04/03 04:16:00;;;;;;;3.30;3.00;;;;;;;;;;5019327;28;20891;-88
2023/04/03 04:18:26;;;;;;;3.53;3.20;;;;;;;;;;5021906;28;20446;-89
2023/04/03 04:20:52;;;;;;;3.07;2.73;;;;;;;;;;5010547;28;20420;-88
2023/04/03 04:23:18;;;;;;;2.70;2.50;;;;;;;;;;5020500;28;20422;-88
2023/04/03 04:25:48;;;;;;;3.30;2.07;;;;;;;;;;5018753;28;20454;-94
2023/04/03 04:28:14;;;;;;;2.60;2.40;;;;;;;;;;5011023;28;20519;-89
2023/04/03 04:30:40;;;;;;;2.73;2.50;;;;;;;;;;5024909;28;20828;-90
2023/04/03 04:33:06;;;;;;;3.70;2.80;;;;;;;;;;5031235;28;20456;-88
2023/04/03 04:35:32;;;;;;;6.17;3.20;;;;;;;;;;5012786;28;20417;-89
2023/04/03 04:37:59;;;;;;;2.97;2.77;;;;;;;;;;5005387;28;20419;-90
2023/04/03 04:40:25;;;;;;;2.60;2.40;;;;;;;;;;5012007;28;20963;-89
2023/04/03 04:42:51;;;;;;;3.30;2.30;;;;;;;;;;5019602;28;20423;-89
2023/04/03 04:45:17;;;;;;;4.20;3.07;;;;;;;;;;5016101;28;20492;-88
2023/04/03 04:47:43;;;;;;;4.10;2.43;;;;;;;;;;5014585;28;20485;-92
2023/04/03 04:50:10;;;;;;;2.97;2.60;;;;;;;;;;5020575;28;20470;-93
2023/04/03 04:52:36;;;;;;;3.10;2.47;;;;;;;;;;5045175;28;20456;-92
2023/04/03 04:55:02;;;;;;;3.30;3.10;;;;;;;;;;5008268;28;20430;-91
2023/04/03 04:57:28;;;;;;;2.20;2.00;;;;;;;;;;5021911;28;20442;-92
2023/04/03 04:59:54;;;;;;;2.90;2.60;;;;;;;;;;5023755;28;20418;-92
2023/04/03 05:02:21;;;;;;;3.43;2.73;;;;;;;;;;5028198;28;20469;-91
2023/04/03 05:04:47;;;;;;;3.00;2.30;;;;;;;;;;5025049;28;20434;-88
2023/04/03 05:07:13;;;;;;;3.87;2.67;;;;;;;;;;5023630;28;20936;-89
2023/04/03 05:09:41;;;;;;;3.20;2.90;;;;;;;;;;5046066;28;20461;-89
2023/04/03 05:12:07;;;;;;;2.97;2.60;;;;;;;;;;5038421;28;20618;-88
2023/04/03 05:14:33;;;;;;;3.03;2.63;;;;;;;;;;5013861;28;20825;-90
2023/04/03 05:16:59;;;;;;;3.00;2.37;;;;;;;;;;5041532;28;20414;-90
2023/04/03 05:19:25;;;;;;;6.07;2.80;;;;;;;;;;5052752;28;20794;-89
2023/04/03 05:21:51;;;;;;;4.80;2.23;;;;;;;;;;5041522;28;20417;-89
2023/04/03 05:24:17;;;;;;;2.93;2.37;;;;;;;;;;5014906;28;21014;-89
2023/04/03 05:26:44;;;;;;;3.20;2.90;;;;;;;;;;5026282;28;20476;-89
2023/04/03 05:29:10;;;;;;;2.20;2.00;;;;;;;;;;5026717;28;20469;-88
2023/04/03 05:31:36;;;;;;;2.73;2.53;;;;;;;;;;5025222;28;20434;-89
2023/04/03 05:34:02;;;;;;;3.10;2.60;;;;;;;;;;5015225;28;20473;-90
2023/04/03 05:36:28;;;;;;;2.93;2.37;;;;;;;;;;5021053;28;20430;-89
2023/04/03 05:38:56;;;;;;;3.27;2.87;;;;;;;;;;5017185;28;20469;-90
2023/04/03 05:41:22;;;;;;;2.70;2.50;;;;;;;;;;5027247;28;20410;-90
2023/04/03 05:43:48;;;;;;;2.80;2.50;;;;;;;;;;5035375;28;20425;-90
2023/04/03 05:46:15;;;;;;;2.40;2.20;;;;;;;;;;5050168;28;20430;-89
2023/04/03 05:48:41;;;;;;;6.63;2.90;;;;;;;;;;5028639;28;20480;-89
2023/04/03 05:51:07;;;;;;;2.43;2.23;;;;;;;;;;5023943;28;20858;-90
2023/04/03 05:53:33;;;;;;;2.90;2.27;;;;;;;;;;5043491;28;20419;-90
2023/04/03 05:55:59;;;;;;;2.90;2.50;;;;;;;;;;5023715;28;20418;-89
2023/04/03 05:58:25;;;;;;;3.10;2.30;;;;;;;;;;5025338;28;20453;-91
2023/04/03 06:00:52;;;;;;;4.00;3.03;;;;;;;;;;5005076;28;20596;-88
2023/04/03 06:03:18;;;;;;;2.83;2.10;;;;;;;;;;5023522;28;20968;-89
2023/04/03 06:05:46;;;;;;;7.60;2.73;;;;;;;;;;5041266;28;20430;-91
2023/04/03 06:08:15;;;;;;;6.43;2.93;;;;;;;;;;5041181;28;20446;-90
2023/04/03 06:10:41;;;;;;;4.20;2.87;;;;;;;;;;5025362;28;21223;-90
2023/04/03 06:13:07;;;;;;;4.93;2.37;;;;;;;;;;5024804;28;20422;-90
2023/04/03 06:15:33;;;;;;;3.40;2.27;;;;;;;;;;5023902;28;20434;-90
2023/04/03 06:18:01;;;;;;;2.87;2.30;;;;;;;;;;5024497;28;21106;-90
2023/04/03 06:20:27;;;;;;;2.30;2.10;;;;;;;;;;5021099;28;20451;-90
2023/04/03 06:22:53;;;;;;;2.70;2.40;;;;;;;;;;5013099;28;20806;-90
2023/04/03 06:25:19;;;;;;;2.60;2.27;;;;;;;;;;5031544;28;20414;-91
2023/04/03 06:27:45;;;;;;;2.73;2.53;;;;;;;;;;5052940;28;20513;-90
2023/04/03 06:30:12;;;;;;;2.70;2.50;;;;;;;;;;5024410;28;20968;-91
2023/04/03 06:32:38;;;;;;;2.77;2.47;;;;;;;;;;5039548;28;20431;-89
2023/04/03 06:35:05;;;;;;;3.70;3.30;;;;;;;;;;5021391;28;20457;-90
2023/04/03 06:37:32;;;;;;;2.80;2.50;;;;;;;;;;5021140;28;21128;-89
2023/04/03 06:39:58;;;;;;;2.73;2.43;;;;;;;;;;5014362;28;20893;-88
2023/04/03 06:42:24;;;;;;;2.50;2.30;;;;;;;;;;5026885;28;20423;-89
2023/04/03 06:44:50;;;;;;;7.43;2.23;;;;;;;;;;5021304;28;20431;-90
2023/04/03 06:47:17;;;;;;;3.30;2.33;;;;;;;;;;5030594;28;20451;-90
2023/04/03 06:49:44;;;;;;;2.60;1.90;;;;;;;;;;5023836;28;20446;-91
2023/04/03 06:52:11;;;;;;;4.27;2.83;;;;;;;;;;5024048;28;20437;-91
2023/04/03 06:54:37;;;;;;;3.77;2.77;;;;;;;;;;5014888;28;21019;-89
2023/04/03 06:57:04;;;;;;;3.20;2.20;;;;;;;;;;5021687;28;20454;-90
2023/04/03 06:59:30;;;;;;;3.43;3.00;;;;;;;;;;5014465;28;20481;-90
2023/04/03 07:01:56;;;;;;;3.50;2.60;;;;;;;;;;5027028;28;20438;-91
2023/04/03 07:04:22;;;;;;;4.00;2.67;;;;;;;;;;5022876;28;20481;-90
2023/04/03 07:06:48;;;;;;;3.57;2.90;;;;;;;;;;5054823;28;20537;-90
2023/04/03 07:09:14;;;;;;;3.43;2.80;;;;;;;;;;5015430;28;20641;-89
2023/04/03 07:11:40;;;;;;;3.53;2.30;;;;;;;;;;5016343;28;20466;-89
2023/04/03 07:14:07;;;;;;;5.33;2.90;;;;;;;;;;5030501;28;20427;-90
2023/04/03 07:16:33;;;;;;;2.50;2.27;;;;;;;;;;5041789;28;20845;-89
2023/04/03 07:19:00;;;;;;;3.50;2.77;;;;;;;;;;5046819;28;20806;-89
2023/04/03 07:21:26;;;;;;;4.53;2.40;;;;;;;;;;5015554;28;20435;-90
2023/04/03 07:23:52;;;;;;;3.13;2.83;;;;;;;;;;5012036;28;20418;-89
2023/04/03 07:26:20;;;;;;;7.90;3.27;;;;;;;;;;5032516;28;20509;-89
2023/04/03 07:28:48;;;;;;;3.07;2.53;;;;;;;;;;5033466;28;20469;-90
2023/04/03 07:31:14;;;;;;;2.77;2.57;;;;;;;;;;5020552;28;20499;-92
2023/04/03 07:33:40;;;;;;;4.13;2.63;;;;;;;;;;5028574;28;20427;-89
2023/04/03 07:36:07;;;;;;;6.90;2.67;;;;;;;;;;5020826;28;20441;-90
2023/04/03 07:38:33;;;;;;;2.47;2.27;;;;;;;;;;5029515;28;21192;-90
2023/04/03 07:41:00;;;;;;;3.67;2.70;;;;;;;;;;5032396;28;20453;-89
2023/04/03 07:43:26;;;;;;;8.10;3.70;;;;;;;;;;5031269;28;20462;-91
2023/04/03 07:45:53;;;;;;;4.20;2.53;;;;;;;;;;5022060;28;20477;-89
2023/04/03 07:48:20;;;;;;;3.10;2.40;;;;;;;;;;5031194;28;20434;-90
2023/04/03 07:50:46;;;;;;;4.83;2.73;;;;;;;;;;5040545;28;20442;-90
2023/04/03 07:53:12;;;;;;;3.90;2.83;;;;;;;;;;5043503;28;20445;-90
2023/04/03 07:55:42;;;;;;;2.60;2.07;;;;;;;;;;5023089;28;21027;-90
2023/04/03 07:58:12;;;;;;;3.10;2.80;;;;;;;;;;5040616;28;20474;-90
2023/04/03 08:00:39;;;;;;;3.30;2.97;;;;;;;;;;5026504;28;20922;-90
2023/04/03 08:03:05;;;;;;;5.60;2.73;;;;;;;;;;5022862;28;20932;-88
2023/04/03 08:05:31;;;;;;;3.30;2.83;;;;;;;;;;5043210;28;20418;-90
2023/04/03 08:07:57;;;;;;;4.20;3.00;;;;;;;;;;5040875;28;20463;-90
2023/04/03 08:10:23;;;;;;;2.97;2.63;;;;;;;;;;5055430;28;20552;-88
2023/04/03 08:12:49;;;;;;;3.10;2.80;;;;;;;;;;5037689;28;20438;-88
2023/04/03 08:15:16;;;;;;;3.00;2.80;;;;;;;;;;5022424;28;20490;-89
2023/04/03 08:17:42;;;;;;;3.40;2.60;;;;;;;;;;5038517;28;20433;-89
2023/04/03 08:20:09;;;;;;;8.13;2.80;;;;;;;;;;5021515;28;20450;-89
2023/04/03 08:22:35;;;;;;;3.07;2.77;;;;;;;;;;5030507;28;20472;-87
2023/04/03 08:25:01;;;;;;;3.57;3.27;;;;;;;;;;5016412;28;20488;-88
2023/04/03 08:27:28;;;;;;;4.50;2.80;;;;;;;;;;5035931;28;20488;-89
2023/04/03 08:29:54;;;;;;;2.10;1.90;;;;;;;;;;5039243;28;20877;-89
2023/04/03 08:32:20;;;;;;;2.90;2.70;;;;;;;;;;5019427;28;21193;-91
2023/04/03 08:34:46;;;;;;;3.63;2.53;;;;;;;;;;5032711;28;20430;-90
2023/04/03 08:37:13;;;;;;;4.90;2.27;;;;;;;;;;5024610;28;20407;-89
2023/04/03 08:39:39;;;;;;;6.13;2.77;;;;;;;;;;5014059;28;20498;-90
2023/04/03 08:42:07;;;;;;;4.03;3.10;;;;;;;;;;5039417;28;21141;-90
2023/04/03 08:44:33;;;;;;;5.20;2.87;;;;;;;;;;5023177;28;20917;-89
2023/04/03 08:47:02;;;;;;;2.80;2.60;;;;;;;;;;5037594;28;20442;-89
2023/04/03 08:49:28;;;;;;;2.77;2.10;;;;;;;;;;5036468;28;20485;-89
2023/04/03 08:51:54;;;;;;;3.80;3.00;;;;;;;;;;5037344;28;20418;-89
2023/04/03 08:54:46;;;;;;;7.63;3.17;;;;;;;;;;5021461;28;20411;-89
2023/04/03 08:57:12;;;;;;;4.87;3.20;;;;;;;;;;5032535;28;20967;-90
2023/04/03 08:59:38;;;;;;;2.93;2.33;;;;;;;;;;5038700;28;20426;-90
2023/04/03 09:02:07;;;;;;;3.83;2.00;;;;;;;;;;5004084;28;20423;-89
2023/04/03 09:04:33;;;;;;;4.20;2.40;;;;;;;;;;5033150;28;20427;-88
2023/04/03 09:07:02;;;;;;;4.43;1.90;;;;;;;;;;5018413;28;20439;-90
2023/04/03 09:09:33;;;;;;;5.00;2.83;;;;;;;;;;5021735;28;20486;-89
2023/04/03 09:11:59;;;;;;;2.70;2.50;;;;;;;;;;5005774;28;20785;-90
2023/04/03 09:14:28;;;;;;;4.80;2.93;;;;;;;;;;5057897;28;20401;-90
2023/04/03 09:16:58;;;;;;;2.83;2.63;;;;;;;;;;5038368;28;20487;-89
2023/04/03 09:19:33;;;;;;;3.50;2.93;;;;;;;;;;5022609;28;20402;-90
2023/04/03 09:22:19;;;;;;;2.77;2.57;;;;;;;;;;5033294;28;20479;-90
2023/04/03 09:24:51;;;;;;;4.60;3.03;;;;;;;;;;5020981;28;20518;-89
2023/04/03 09:27:17;;;;;;;5.10;2.63;;;;;;;;;;5018200;28;20554;-89
2023/04/03 09:29:44;;;;;;;3.80;2.50;;;;;;;;;;5020656;28;21060;-89
2023/04/03 09:32:29;;;;;;;5.57;1.97;;;;;;;;;;5035796;28;20497;-89
2023/04/03 09:34:56;;;;;;;3.63;2.67;;;;;;;;;;5035211;28;20415;-89
2023/04/03 09:37:42;;;;;;;3.97;2.70;;;;;;;;;;5037925;28;20442;-89
2023/04/03 09:40:27;;;;;;;2.87;2.67;;;;;;;;;;5021899;28;20460;-89
2023/04/03 09:42:54;;;;;;;3.03;2.10;;;;;;;;;;5027109;28;20437;-90
2023/04/03 09:45:25;;;;;;;2.63;2.20;;;;;;;;;;5021944;28;20435;-89
2023/04/03 09:48:04;;;;;;;3.20;2.80;;;;;;;;;;5027716;28;20450;-89
2023/04/03 09:50:30;;;;;;;2.33;2.13;;;;;;;;;;5046446;28;21188;-89
2023/04/03 09:52:56;;;;;;;3.13;2.77;;;;;;;;;;5009664;28;20965;-90
2023/04/03 09:55:28;;;;;;;3.40;2.67;;;;;;;;;;5034529;28;20418;-89
2023/04/03 09:57:54;;;;;;;2.73;2.53;;;;;;;;;;5052723;28;20451;-90
2023/04/03 10:00:39;;;;;;;5.40;2.50;;;;;;;;;;5028038;28;20532;-86
2023/04/03 10:03:05;;;;;;;4.73;2.53;;;;;;;;;;5022173;28;21239;-88
2023/04/03 10:05:35;;;;;;;4.50;2.43;;;;;;;;;;5028988;28;20446;-84
2023/04/03 10:08:10;;;;;;;3.80;2.40;;;;;;;;;;5029408;28;20431;-84
2023/04/03 10:10:37;;;;;;;2.60;2.13;;;;;;;;;;5031090;28;20536;-85
2023/04/03 10:13:07;;;;;;;2.43;2.23;;;;;;;;;;5039921;28;20414;-84
2023/04/03 10:15:59;;;;;;;2.87;1.97;;;;;;;;;;5019576;28;20431;-85
2023/04/03 10:18:32;;;;;;;8.50;2.60;;;;;;;;;;5003749;28;20470;-86
2023/04/03 10:21:01;;;;;;;2.10;1.90;;;;;;;;;;5030803;28;20827;-85
2023/04/03 10:23:27;;;;;;;3.60;2.60;;;;;;;;;;5012094;28;20470;-87
2023/04/03 10:26:11;;;;;;;2.30;2.10;;;;;;;;;;5029457;28;20427;-85
2023/04/03 10:28:46;;;;;;;5.90;3.90;;;;;;;;;;5032593;28;20399;-86
2023/04/03 10:31:12;;;;;;;2.10;1.90;;;;;;;;;;5019492;28;20431;-86
2023/04/03 10:33:51;;;;;;;5.47;2.30;;;;;;;;;;5031423;28;20435;-86
2023/04/03 10:36:36;;;;;;;4.27;2.43;;;;;;;;;;5009516;28;20440;-87
2023/04/03 10:39:09;;;;;;;5.10;3.10;;;;;;;;;;5019333;28;20518;-86
2023/04/03 10:41:45;;;;;;;5.70;2.17;;;;;;;;;;5007945;28;20453;-86
2023/04/03 10:44:13;;;;;;;3.97;2.23;;;;;;;;;;5010546;28;20423;-86
2023/04/03 10:46:42;;;;;;;2.90;1.60;;;;;;;;;;5034878;28;20906;-86
2023/04/03 10:49:14;;;;;;;2.33;2.00;;;;;;;;;;5023982;28;20552;-86
2023/04/03 10:51:48;;;;;;;3.03;2.30;;;;;;;;;;4987426;28;20424;-86
2023/04/03 10:54:20;;;;;;;5.47;2.50;;;;;;;;;;5000613;28;20415;-86
2023/04/03 10:56:53;;;;;;;2.10;1.80;;;;;;;;;;5035047;28;20439;-88
2023/04/03 10:59:32;;;;;;;5.90;2.07;;;;;;;;;;5015603;28;20453;-84
2023/04/03 11:02:00;;;;;;;2.50;2.27;;;;;;;;;;4997440;28;20424;-84
2023/04/03 11:04:27;;;;;;;3.40;2.63;;;;;;;;;;5005292;28;20433;-86
2023/04/03 11:06:54;;;;;;;2.63;2.43;;;;;;;;;;5012411;28;20423;-85
2023/04/03 11:09:27;;;;;;;3.33;2.77;;;;;;;;;;5015878;28;20474;-85
2023/04/03 11:11:56;;;;;;;3.67;2.30;;;;;;;;;;5022626;28;20541;-85
2023/04/03 11:14:26;;;;;;;2.20;2.00;;;;;;;;;;5019376;28;20449;-88
2023/04/03 11:17:05;;;;;;;2.40;1.77;;;;;;;;;;5033455;28;20448;-86
2023/04/03 11:19:39;;;;;;;2.47;2.27;;;;;;;;;;5036943;28;21289;-85
2023/04/03 11:22:09;;;;;;;3.73;2.07;;;;;;;;;;5020952;28;21283;-87
2023/04/03 11:24:36;;;;;;;3.33;2.03;;;;;;;;;;5036303;28;20819;-87
2023/04/03 11:27:04;;;;;;;3.40;1.47;;;;;;;;;;5046491;28;20533;-85
2023/04/03 11:29:34;;;;;;;4.70;2.40;;;;;;;;;;5030482;28;20471;-87
2023/04/03 11:32:36;;;;;;;2.50;1.70;;;;;;;;;;5022655;28;20423;-87
2023/04/03 11:35:02;;;;;;;2.20;2.00;;;;;;;;;;4959498;28;20422;-86
2023/04/03 11:37:33;;;;;;;3.27;1.80;;;;;;;;;;5025343;28;20438;-88
2023/04/03 11:40:04;;;;;;;3.20;1.80;;;;;;;;;;5023772;28;20436;-89
2023/04/03 11:42:37;;;;;;;2.63;1.80;;;;;;;;;;5021021;28;20860;-90
2023/04/03 11:45:27;;;;;;;1.80;1.70;;;;;;;;;;5007438;28;20422;-88
2023/04/03 11:47:53;;;;;;;2.97;2.07;;;;;;;;;;5026300;28;20490;-89
2023/04/03 11:50:35;;;;;;;5.23;2.00;;;;;;;;;;5017239;28;20453;-88
2023/04/03 11:53:08;;;;;;;2.20;1.90;;;;;;;;;;5040026;28;20541;-85
2023/04/03 11:55:34;;;;;;;1.97;1.87;;;;;;;;;;5054309;28;20432;-86
2023/04/03 11:58:00;;;;;;;4.60;1.53;;;;;;;;;;5035894;28;20457;-86
2023/04/03 12:00:51;;;;;;;2.60;1.40;;;;;;;;;;5034277;28;20447;-84
2023/04/03 12:03:29;;;;;;;3.20;1.93;;;;;;;;;;5035724;28;20909;-86
2023/04/03 12:05:58;;;;;;;3.63;2.27;;;;;;;;;;5029667;28;20805;-86
2023/04/03 12:08:33;;;;;;;2.10;1.50;;;;;;;;;;5030623;28;20513;-87
2023/04/03 12:11:11;;;;;;;3.70;1.53;;;;;;;;;;5057363;28;20515;-86
2023/04/03 12:13:37;;;;;;;3.70;2.13;;;;;;;;;;5030233;28;20560;-87
2023/04/03 12:16:04;;;;;;;5.27;1.67;;;;;;;;;;5029136;28;20953;-89
2023/04/03 12:18:49;;;;;;;2.20;1.60;;;;;;;;;;5017310;28;20921;-87
2023/04/03 12:21:18;;;;;;;2.30;2.10;;;;;;;;;;5042188;28;21147;-88
2023/04/03 12:23:56;;;;;;;2.20;2.00;;;;;;;;;;5048828;28;20446;-89
2023/04/03 12:26:25;;;;;;;5.07;2.70;;;;;;;;;;5036486;28;20450;-90
2023/04/03 12:28:52;;;;;;;2.60;2.03;;;;;;;;;;5015780;28;20464;-89
2023/04/03 12:31:20;;;;;;;3.20;1.93;;;;;;;;;;5021545;28;20778;-88
2023/04/03 12:33:57;;;;;;;3.43;1.70;;;;;;;;;;5020401;28;20829;-88
2023/04/03 12:36:29;;;;;;;2.00;1.60;;;;;;;;;;5051865;28;20451;-88
2023/04/03 12:39:01;;;;;;;1.83;1.40;;;;;;;;;;5024161;28;20791;-89
2023/04/03 12:41:30;;;;;;;2.97;2.03;;;;;;;;;;5030092;28;20474;-88
2023/04/03 12:44:07;;;;;;;3.10;1.60;;;;;;;;;;5036164;28;20426;-88
2023/04/03 12:46:37;;;;;;;3.87;2.03;;;;;;;;;;5039576;28;20509;-90
2023/04/03 12:49:06;;;;;;;3.80;1.73;;;;;;;;;;5020001;28;20989;-89
2023/04/03 12:51:41;;;;;;;5.00;2.03;;;;;;;;;;5025569;28;20426;-89
2023/04/03 12:54:19;;;;;;;3.07;1.60;;;;;;;;;;5018846;28;20446;-84
2023/04/03 12:56:45;;;;;;;1.90;1.80;;;;;;;;;;5036393;28;20410;-88
2023/04/03 12:59:26;;;;;;;3.07;2.47;;;;;;;;;;5034655;28;20460;-89
2023/04/03 13:01:56;;;;;;;5.20;2.47;;;;;;;;;;5024333;28;20419;-89
2023/04/03 13:04:22;;;;;;;1.77;1.53;;;;;;;;;;5021014;28;20433;-89
2023/04/03 13:06:48;;;;;;;4.23;2.33;;;;;;;;;;5033065;28;20424;-89
2023/04/03 13:09:21;;;;;;;1.97;1.77;;;;;;;;;;5018011;28;20463;-90
2023/04/03 13:11:47;;;;;;;1.73;1.63;;;;;;;;;;5035616;28;20422;-89
2023/04/03 13:14:15;;;;;;;4.40;1.60;;;;;;;;;;5018230;28;20488;-85
2023/04/03 13:16:41;;;;;;;2.50;2.13;;;;;;;;;;5025042;28;20434;-93
2023/04/03 13:19:07;;;;;;;2.90;2.60;;;;;;;;;;5039810;28;20467;-92
2023/04/03 13:21:33;;;;;;;2.87;2.20;;;;;;;;;;5020276;28;20431;-89
2023/04/03 13:24:00;;;;;;;3.70;1.73;;;;;;;;;;5015162;28;20443;-90
2023/04/03 13:26:30;;;;;;;3.10;2.10;;;;;;;;;;5044710;28;20438;-84
2023/04/03 13:29:06;;;;;;;5.10;1.70;;;;;;;;;;5018650;28;20450;-85
2023/04/03 13:31:35;;;;;;;3.13;2.03;;;;;;;;;;5039996;28;22298;-84
2023/04/03 13:34:11;;;;;;;3.77;3.00;;;;;;;;;;5036490;28;20434;-83
2023/04/03 13:36:39;;;;;;;2.20;1.73;;;;;;;;;;5020304;28;20461;-82
2023/04/03 13:39:28;;;;;;;3.67;2.40;;;;;;;;;;5019427;28;20978;-81
2023/04/03 13:41:55;;;;;;;4.53;1.97;;;;;;;;;;5047119;28;20846;-83
2023/04/03 13:44:21;;;;;;;2.53;2.00;;;;;;;;;;5022595;28;20940;-83
2023/04/03 13:46:48;;;;;;;3.00;1.73;;;;;;;;;;5040138;28;20484;-83
2023/04/03 13:49:20;;;;;;;3.80;2.37;;;;;;;;;;5023226;28;20493;-84
2023/04/03 13:51:47;;;;;;;3.23;1.60;;;;;;;;;;5038148;28;20951;-85
2023/04/03 13:54:23;;;;;;;3.20;2.13;;;;;;;;;;5022979;28;21147;-82
2023/04/03 13:56:56;;;;;;;2.50;2.10;;;;;;;;;;5013929;28;20439;-82
2023/04/03 13:59:28;;;;;;;4.43;1.80;;;;;;;;;;5021075;28;20963;-84
2023/04/03 14:01:54;;;;;;;3.63;2.00;;;;;;;;;;5032064;28;20546;-82
2023/04/03 14:04:21;;;;;;;3.40;2.03;;;;;;;;;;5040273;28;20422;-83
2023/04/03 14:06:47;;;;;;;2.10;1.90;;;;;;;;;;5020653;28;20430;-83
2023/04/03 14:09:14;;;;;;;3.47;2.30;;;;;;;;;;5020479;28;20488;-83
2023/04/03 14:11:40;;;;;;;2.70;2.13;;;;;;;;;;5018413;28;20503;-85
2023/04/03 14:14:10;;;;;;;2.70;2.10;;;;;;;;;;5030603;28;20422;-85
2023/04/03 14:16:37;;;;;;;3.40;3.10;;;;;;;;;;5036544;28;20782;-92
2023/04/03 14:19:04;;;;;;;5.37;3.50;;;;;;;;;;5022623;28;20438;-90
2023/04/03 14:21:30;;;;;;;4.80;2.20;;;;;;;;;;5023810;28;20435;-92
2023/04/03 14:23:56;;;;;;;2.47;2.00;;;;;;;;;;5037568;28;20438;-85
2023/04/03 14:26:23;;;;;;;1.90;1.33;;;;;;;;;;5031517;28;20430;-85
2023/04/03 14:28:53;;;;;;;3.13;2.40;;;;;;;;;;5018759;28;20989;-87
2023/04/03 14:31:19;;;;;;;4.10;1.90;;;;;;;;;;5022901;28;20440;-94
2023/04/03 14:33:45;;;;;;;2.80;1.70;;;;;;;;;;5037074;28;20447;-92
2023/04/03 14:36:12;;;;;;;5.07;2.60;;;;;;;;;;5042525;28;20444;-93
2023/04/03 14:38:38;;;;;;;4.20;2.00;;;;;;;;;;5025779;28;20483;-94
2023/04/03 14:41:04;;;;;;;3.33;1.93;;;;;;;;;;5047593;28;20937;-90
2023/04/03 14:43:30;;;;;;;3.40;2.20;;;;;;;;;;5027689;28;20457;-90
2023/04/03 14:45:56;;;;;;;2.50;2.10;;;;;;;;;;5037184;28;20462;-91
2023/04/03 14:48:24;;;;;;;1.83;1.63;;;;;;;;;;5043887;28;20426;-91
2023/04/03 14:50:50;;;;;;;3.80;1.97;;;;;;;;;;5027591;28;20476;-89